Time;durP1;ratioP1;P1;durP2;ratioP2;P2;SDS_P1;SDS_P2;PMS_P1;PMS_P2;Temp;Humidity;BMP_temperature;BMP_pressure;BME280_temperature;BME280_humidity;BME280_pressure;Samples;Min_cycle;Max_cycle;Signal;HPM_P1;HPM_P2
2024/01/19 00:00:41;;;;;;;16.43;15.03;;;-1.80;99.90;;;;;;4949573;28;20607;-63
2024/01/19 00:03:08;;;;;;;17.43;14.97;;;-1.80;99.90;;;;;;4949364;28;20204;-60
2024/01/19 00:05:35;;;;;;;15.93;14.50;;;-1.70;99.90;;;;;;4936194;29;20573;-62
2024/01/19 00:08:02;;;;;;;15.93;14.43;;;-1.70;99.90;;;;;;4948602;28;20199;-61
2024/01/19 00:10:30;;;;;;;16.70;15.20;;;-1.70;99.90;;;;;;4945941;28;20187;-61
2024/01/19 00:12:57;;;;;;;16.07;14.70;;;-1.70;99.90;;;;;;4945164;28;20578;-63
2024/01/19 00:15:24;;;;;;;17.83;15.97;;;-1.60;99.90;;;;;;4950355;28;20739;-62
2024/01/19 00:18:05;;;;;;;17.70;14.60;;;-1.70;99.90;;;;;;4926951;28;20265;-62
2024/01/19 00:20:32;;;;;;;15.57;14.30;;;-1.60;99.90;;;;;;4950368;28;20199;-64
2024/01/19 00:22:59;;;;;;;16.73;15.03;;;-1.70;99.90;;;;;;4951726;28;20206;-62
2024/01/19 00:25:26;;;;;;;16.13;14.83;;;-1.70;99.90;;;;;;4946794;28;20235;-62
2024/01/19 00:27:53;;;;;;;16.67;15.10;;;-1.60;99.90;;;;;;4952020;28;20273;-64
2024/01/19 00:30:20;;;;;;;17.43;15.83;;;-1.60;99.90;;;;;;4929818;29;20202;-62
2024/01/19 00:32:47;;;;;;;17.37;15.73;;;-1.60;99.90;;;;;;4952631;28;20187;-62
2024/01/19 00:35:14;;;;;;;17.33;15.63;;;-1.60;99.90;;;;;;4950803;28;20655;-62
2024/01/19 00:37:43;;;;;;;17.13;15.43;;;-1.60;99.90;;;;;;4947344;28;20191;-62
2024/01/19 00:40:11;;;;;;;16.93;15.27;;;-1.60;99.90;;;;;;4952747;28;20207;-61
2024/01/19 00:42:42;;;;;;;17.20;15.10;;;-1.60;99.90;;;;;;4948373;28;20188;-62
2024/01/19 00:45:10;;;;;;;16.80;14.90;;;-1.70;99.90;;;;;;4948998;28;20201;-60
2024/01/19 00:47:38;;;;;;;17.50;15.77;;;-1.80;99.90;;;;;;4945324;28;20195;-61
2024/01/19 00:50:06;;;;;;;16.03;14.63;;;-1.80;99.90;;;;;;4949628;28;20657;-61
2024/01/19 00:52:33;;;;;;;16.57;15.03;;;-1.70;99.90;;;;;;4945426;28;20605;-62
2024/01/19 00:55:00;;;;;;;16.90;15.30;;;-1.70;99.90;;;;;;4930505;29;20201;-62
2024/01/19 00:57:27;;;;;;;17.40;15.80;;;-1.80;99.90;;;;;;4944487;28;20206;-61
2024/01/19 00:59:57;;;;;;;16.97;15.43;;;-1.70;99.90;;;;;;4944218;28;20247;-62
2024/01/19 01:02:28;;;;;;;19.50;15.03;;;-1.80;99.90;;;;;;4946762;28;20215;-62
2024/01/19 01:04:55;;;;;;;16.60;14.97;;;-1.70;99.90;;;;;;4942851;28;20288;-62
2024/01/19 01:07:23;;;;;;;17.53;15.73;;;-1.70;99.90;;;;;;4947821;28;20218;-62
2024/01/19 01:09:50;;;;;;;24.80;16.67;;;-1.80;99.90;;;;;;4931660;28;20680;-62
2024/01/19 01:12:17;;;;;;;19.43;16.73;;;-1.80;99.90;;;;;;4955833;28;20199;-63
2024/01/19 01:14:46;;;;;;;17.33;15.63;;;-1.70;99.90;;;;;;4945758;28;20187;-62
2024/01/19 01:17:13;;;;;;;16.63;15.27;;;-1.70;99.90;;;;;;4943099;28;20214;-62
2024/01/19 01:19:41;;;;;;;18.87;16.97;;;-1.60;99.90;;;;;;4942846;28;20207;-63
2024/01/19 01:22:09;;;;;;;17.10;15.63;;;-1.60;99.90;;;;;;4949461;28;20206;-67
2024/01/19 01:24:36;;;;;;;18.53;16.70;;;-1.60;99.90;;;;;;4927212;29;20202;-67
2024/01/19 01:27:03;;;;;;;17.57;15.83;;;-1.60;99.90;;;;;;4951547;28;20221;-66
2024/01/19 01:29:30;;;;;;;18.13;16.67;;;-1.70;99.90;;;;;;4934095;28;20269;-65
2024/01/19 01:31:57;;;;;;;18.90;17.13;;;-1.80;99.90;;;;;;4943886;28;20245;-67
2024/01/19 01:34:24;;;;;;;19.63;17.27;;;-1.80;99.90;;;;;;4947329;28;22936;-67
2024/01/19 01:36:51;;;;;;;20.00;17.90;;;-1.80;99.90;;;;;;4952604;28;20199;-67
2024/01/19 01:39:18;;;;;;;17.90;16.30;;;-1.70;99.90;;;;;;4947310;28;20672;-68
2024/01/19 01:41:46;;;;;;;18.00;16.17;;;-1.70;99.90;;;;;;4947798;28;20641;-67
2024/01/19 01:44:13;;;;;;;18.17;16.27;;;-1.70;99.90;;;;;;4947353;28;20265;-67
2024/01/19 01:46:40;;;;;;;18.57;16.77;;;-1.60;99.90;;;;;;4944613;28;20226;-68
2024/01/19 01:49:09;;;;;;;18.93;17.20;;;-1.60;99.90;;;;;;4934431;28;20197;-67
2024/01/19 01:51:36;;;;;;;18.80;17.00;;;-1.60;99.90;;;;;;4946711;28;20571;-65
2024/01/19 01:54:05;;;;;;;20.97;17.87;;;-1.60;99.90;;;;;;4931221;28;20558;-64
2024/01/19 01:56:32;;;;;;;19.97;17.37;;;-1.70;99.90;;;;;;4948557;28;20289;-65
2024/01/19 01:59:00;;;;;;;19.80;17.83;;;-1.70;99.90;;;;;;4947650;28;20194;-68
2024/01/19 02:01:28;;;;;;;19.77;17.90;;;-1.70;99.90;;;;;;4942551;28;20239;-64
2024/01/19 02:03:57;;;;;;;20.10;18.17;;;-1.70;99.90;;;;;;4945342;28;20194;-62
2024/01/19 02:06:25;;;;;;;21.63;19.23;;;-1.70;99.90;;;;;;4949695;28;20325;-63
2024/01/19 02:08:52;;;;;;;20.87;18.77;;;-1.70;99.90;;;;;;4955184;28;20751;-64
2024/01/19 02:11:19;;;;;;;19.43;17.57;;;-1.70;99.90;;;;;;4953373;28;20189;-64
2024/01/19 02:13:46;;;;;;;24.10;18.83;;;-1.70;99.90;;;;;;4948747;28;20188;-64
2024/01/19 02:16:13;;;;;;;23.17;18.30;;;-1.60;99.90;;;;;;4951152;28;20636;-64
2024/01/19 02:18:40;;;;;;;26.07;21.40;;;-1.50;99.90;;;;;;4935192;29;20299;-64
2024/01/19 02:21:07;;;;;;;26.07;19.07;;;-1.40;99.90;;;;;;4946046;28;20271;-64
2024/01/19 02:23:52;;;;;;;20.17;17.43;;;-1.30;99.90;;;;;;4942961;28;20337;-64
2024/01/19 02:26:20;;;;;;;20.73;18.73;;;-1.20;99.90;;;;;;4922094;28;20214;-65
2024/01/19 02:28:47;;;;;;;22.07;18.83;;;-1.10;99.90;;;;;;4951497;28;20270;-65
2024/01/19 02:31:14;;;;;;;22.80;19.23;;;-1.20;99.90;;;;;;4946718;28;20199;-60
2024/01/19 02:33:41;;;;;;;20.27;18.33;;;-1.20;99.90;;;;;;4954417;28;20652;-59
2024/01/19 02:36:09;;;;;;;20.90;18.87;;;-1.40;99.90;;;;;;4956650;28;20230;-59
2024/01/19 02:38:35;;;;;;;23.87;18.40;;;-1.50;99.90;;;;;;4949627;28;20266;-60
2024/01/19 02:41:02;;;;;;;28.63;19.63;;;-1.60;99.90;;;;;;4954016;28;20202;-60
2024/01/19 02:43:29;;;;;;;25.63;19.43;;;-1.50;99.90;;;;;;4954282;28;20326;-59
2024/01/19 02:45:56;;;;;;;21.10;18.83;;;-1.40;99.90;;;;;;4932694;28;20289;-60
2024/01/19 02:48:23;;;;;;;25.87;18.67;;;-1.30;99.90;;;;;;4935458;29;20691;-60
2024/01/19 02:50:50;;;;;;;26.97;19.40;;;-1.30;99.90;;;;;;4951681;28;20612;-60
2024/01/19 02:53:17;;;;;;;19.47;17.47;;;-1.20;99.90;;;;;;4951199;28;20684;-62
2024/01/19 02:55:44;;;;;;;20.13;18.07;;;-1.10;99.90;;;;;;4958849;28;20510;-60
2024/01/19 02:58:11;;;;;;;22.23;18.03;;;-1.10;99.90;;;;;;4955889;28;20648;-65
2024/01/19 03:04:39;;;;;;;22.10;18.40;;;-1.00;99.90;;;;;;4951546;28;20769;-62
2024/01/19 03:07:06;;;;;;;20.93;18.73;;;-1.00;99.90;;;;;;4951093;28;20226;-60
2024/01/19 03:09:33;;;;;;;19.77;17.90;;;-1.00;99.90;;;;;;4960330;28;20218;-62
2024/01/19 03:12:00;;;;;;;21.07;18.53;;;-1.00;99.90;;;;;;4955200;28;20203;-61
2024/01/19 03:14:27;;;;;;;19.83;17.90;;;-1.00;99.90;;;;;;4956956;28;20634;-60
2024/01/19 03:16:54;;;;;;;20.57;18.47;;;-1.10;99.90;;;;;;4949187;28;20199;-60
2024/01/19 03:19:21;;;;;;;24.40;18.37;;;-1.00;99.90;;;;;;4947843;28;20226;-60
2024/01/19 03:21:48;;;;;;;19.70;17.53;;;-1.00;99.90;;;;;;4946262;28;20218;-61
2024/01/19 03:24:15;;;;;;;24.33;18.47;;;-1.10;99.90;;;;;;4954889;28;20645;-60
2024/01/19 03:26:42;;;;;;;19.67;18.03;;;-1.10;99.90;;;;;;4937087;28;20225;-60
2024/01/19 03:29:09;;;;;;;19.10;17.30;;;-1.10;99.90;;;;;;4952148;28;20199;-60
2024/01/19 03:31:36;;;;;;;20.03;18.20;;;-1.20;99.90;;;;;;4952566;28;20290;-59
2024/01/19 03:34:03;;;;;;;18.67;17.10;;;-1.20;99.90;;;;;;4935791;29;20201;-62
2024/01/19 03:36:30;;;;;;;23.30;19.27;;;-1.20;99.90;;;;;;4953722;28;20186;-61
2024/01/19 03:38:57;;;;;;;22.00;18.67;;;-1.30;99.90;;;;;;4948949;28;20687;-62
2024/01/19 03:41:24;;;;;;;21.00;18.53;;;-1.30;99.90;;;;;;4952086;28;20282;-66
2024/01/19 03:43:51;;;;;;;23.30;18.43;;;-1.20;99.90;;;;;;4951624;28;20225;-67
2024/01/19 03:46:18;;;;;;;24.50;18.97;;;-1.10;99.90;;;;;;4956266;28;20296;-67
2024/01/19 03:48:44;;;;;;;20.83;18.27;;;-1.00;99.90;;;;;;4949810;28;20695;-67
2024/01/19 03:51:12;;;;;;;21.10;18.87;;;-1.00;99.90;;;;;;4957592;28;20211;-67
2024/01/19 03:53:43;;;;;;;19.50;17.53;;;-1.00;99.90;;;;;;4965202;28;20214;-66
2024/01/19 03:56:10;;;;;;;19.63;17.67;;;-0.90;99.90;;;;;;4957689;28;20199;-66
2024/01/19 03:58:37;;;;;;;21.87;19.50;;;-0.90;99.90;;;;;;4959338;28;20198;-67
2024/01/19 04:01:05;;;;;;;20.40;18.43;;;-0.90;99.90;;;;;;4965421;28;20242;-67
2024/01/19 04:03:33;;;;;;;19.70;17.83;;;-0.90;99.90;;;;;;4966792;28;20639;-65
2024/01/19 04:06:02;;;;;;;19.93;18.10;;;-0.90;99.90;;;;;;4956314;28;20286;-66
2024/01/19 04:08:30;;;;;;;20.63;18.53;;;-0.90;99.90;;;;;;4956756;28;20286;-65
2024/01/19 04:10:57;;;;;;;27.53;18.83;;;-0.90;99.90;;;;;;4956869;28;20202;-65
2024/01/19 04:13:24;;;;;;;24.23;20.50;;;-0.90;99.90;;;;;;4958648;28;20199;-65
2024/01/19 04:15:50;;;;;;;22.10;19.80;;;-1.00;99.90;;;;;;4955649;28;20201;-66
2024/01/19 04:18:17;;;;;;;22.20;19.77;;;-1.10;99.90;;;;;;4956711;28;20277;-66
2024/01/19 04:20:45;;;;;;;22.63;20.30;;;-1.10;99.90;;;;;;4931434;28;20269;-66
2024/01/19 04:23:12;;;;;;;21.67;19.47;;;-1.20;99.90;;;;;;4954126;28;20806;-66
2024/01/19 04:25:39;;;;;;;20.10;18.23;;;-1.30;99.90;;;;;;4953254;28;20215;-65
2024/01/19 04:28:06;;;;;;;23.10;20.13;;;-1.40;99.90;;;;;;4954072;28;20289;-68
2024/01/19 04:30:32;;;;;;;21.43;19.43;;;-1.40;99.90;;;;;;4955282;28;20206;-64
2024/01/19 04:32:59;;;;;;;21.30;19.13;;;-1.40;99.90;;;;;;4947049;28;20837;-67
2024/01/19 04:35:26;;;;;;;21.77;19.57;;;-1.50;99.90;;;;;;4948159;28;20199;-67
2024/01/19 04:37:53;;;;;;;23.60;21.37;;;-1.50;99.90;;;;;;4945328;28;20671;-65
2024/01/19 04:40:20;;;;;;;22.20;19.83;;;-1.60;99.90;;;;;;4946999;28;20279;-66
2024/01/19 04:42:47;;;;;;;24.93;20.47;;;-1.70;99.90;;;;;;4947296;28;20210;-65
2024/01/19 04:45:14;;;;;;;21.57;19.40;;;-1.60;99.90;;;;;;4927641;28;20210;-66
2024/01/19 04:47:41;;;;;;;25.67;20.43;;;-1.60;99.90;;;;;;4944594;28;20254;-66
2024/01/19 04:50:08;;;;;;;21.93;19.40;;;-1.50;99.90;;;;;;4932364;28;20347;-66
2024/01/19 04:52:35;;;;;;;22.60;19.87;;;-1.50;99.90;;;;;;4942330;28;20270;-62
2024/01/19 04:55:02;;;;;;;21.27;19.17;;;-1.60;99.90;;;;;;4951419;28;20214;-61
2024/01/19 04:57:29;;;;;;;20.90;18.83;;;-1.50;99.90;;;;;;4940367;29;20207;-61
2024/01/19 04:59:56;;;;;;;21.10;18.97;;;-1.50;99.90;;;;;;4932484;29;20250;-61
2024/01/19 05:02:24;;;;;;;22.63;20.33;;;-1.50;99.90;;;;;;4945042;28;20203;-62
2024/01/19 05:04:51;;;;;;;24.40;20.30;;;-1.50;99.90;;;;;;4925602;29;20199;-61
2024/01/19 05:07:18;;;;;;;27.77;21.00;;;-1.40;99.90;;;;;;4950769;28;20281;-61
2024/01/19 05:09:45;;;;;;;22.53;20.23;;;-1.30;99.90;;;;;;4950233;28;20191;-61
2024/01/19 05:12:12;;;;;;;29.23;20.40;;;-1.30;99.90;;;;;;4945796;28;20191;-66
2024/01/19 05:14:39;;;;;;;27.00;23.13;;;-1.20;99.90;;;;;;4946780;28;20192;-66
2024/01/19 05:17:06;;;;;;;26.57;21.03;;;-1.20;99.90;;;;;;4948825;28;20191;-66
2024/01/19 05:19:33;;;;;;;28.77;22.97;;;-1.10;99.90;;;;;;4945452;28;20730;-66
2024/01/19 05:22:01;;;;;;;29.83;22.63;;;-1.10;99.90;;;;;;4928825;28;20198;-65
2024/01/19 05:24:28;;;;;;;24.10;19.93;;;-1.10;99.90;;;;;;4953269;28;20689;-64
2024/01/19 05:26:55;;;;;;;30.80;22.70;;;-1.00;99.90;;;;;;4944658;28;20243;-66
2024/01/19 05:29:22;;;;;;;28.63;22.00;;;-1.00;99.90;;;;;;4931333;28;20281;-66
2024/01/19 05:31:49;;;;;;;27.03;21.80;;;-1.00;99.90;;;;;;4951537;28;20582;-67
2024/01/19 05:34:16;;;;;;;27.97;22.33;;;-1.00;99.90;;;;;;4954645;28;20225;-67
2024/01/19 05:36:43;;;;;;;28.10;21.37;;;-1.00;99.90;;;;;;4952875;28;20552;-67
2024/01/19 05:39:10;;;;;;;30.00;22.63;;;-0.90;99.90;;;;;;4951408;28;20191;-66
2024/01/19 05:41:37;;;;;;;25.43;22.13;;;-0.90;99.90;;;;;;4951289;28;20194;-67
2024/01/19 05:44:04;;;;;;;26.73;22.43;;;-0.90;99.90;;;;;;4953736;28;20279;-67
2024/01/19 05:46:31;;;;;;;29.50;23.00;;;-0.90;99.90;;;;;;4933815;28;20352;-66
2024/01/19 05:48:58;;;;;;;28.43;22.70;;;-0.90;99.90;;;;;;4952636;28;20245;-68
2024/01/19 05:51:25;;;;;;;29.13;22.60;;;-0.80;99.90;;;;;;4952689;28;20183;-66
2024/01/19 05:53:52;;;;;;;28.23;21.83;;;-0.80;99.90;;;;;;4958215;28;20305;-66
2024/01/19 05:56:19;;;;;;;29.70;21.77;;;-0.80;99.90;;;;;;4950417;28;20257;-67
2024/01/19 05:58:46;;;;;;;32.47;22.90;;;-0.70;99.90;;;;;;4947603;28;20639;-67
2024/01/19 06:01:13;;;;;;;31.83;21.97;;;-0.70;99.90;;;;;;4935642;29;20257;-67
2024/01/19 06:03:40;;;;;;;28.87;22.53;;;-0.70;99.90;;;;;;4935327;29;20195;-66
2024/01/19 06:06:07;;;;;;;31.47;21.40;;;-0.70;99.90;;;;;;4957083;28;20210;-67
2024/01/19 06:08:35;;;;;;;29.23;22.10;;;-0.70;99.90;;;;;;4947969;28;20691;-66
2024/01/19 06:11:02;;;;;;;38.77;21.97;;;-0.70;99.90;;;;;;4939164;28;20813;-65
2024/01/19 06:13:29;;;;;;;29.90;23.60;;;-0.70;99.90;;;;;;4951150;28;20190;-65
2024/01/19 06:15:55;;;;;;;30.87;20.97;;;-0.60;99.90;;;;;;4949246;28;20202;-65
2024/01/19 06:18:22;;;;;;;26.50;22.03;;;-0.60;99.90;;;;;;4944383;28;20703;-66
2024/01/19 06:20:51;;;;;;;25.47;20.93;;;-0.50;99.90;;;;;;4958758;28;20206;-65
2024/01/19 06:23:18;;;;;;;40.47;22.67;;;-0.60;99.90;;;;;;4951995;28;20337;-60
2024/01/19 06:25:45;;;;;;;27.97;21.83;;;-0.60;99.90;;;;;;4954363;28;20209;-60
2024/01/19 06:28:12;;;;;;;27.87;21.63;;;-0.60;99.90;;;;;;4952757;28;20215;-60
2024/01/19 06:30:42;;;;;;;27.53;21.27;;;-0.70;99.90;;;;;;4931685;29;20309;-60
2024/01/19 06:33:08;;;;;;;24.93;21.67;;;-0.60;99.90;;;;;;4950195;28;20187;-60
2024/01/19 06:35:36;;;;;;;31.60;23.07;;;-0.70;99.90;;;;;;4936916;29;20199;-61
2024/01/19 06:38:04;;;;;;;27.50;20.60;;;-0.60;99.90;;;;;;4952338;28;20471;-61
2024/01/19 06:40:31;;;;;;;38.00;22.80;;;-0.50;99.90;;;;;;4931136;29;20609;-60
2024/01/19 06:42:58;;;;;;;28.57;22.67;;;-0.50;99.90;;;;;;4953260;28;20207;-60
2024/01/19 06:45:27;;;;;;;29.37;22.20;;;-0.50;99.90;;;;;;4950776;28;20357;-60
2024/01/19 06:47:54;;;;;;;34.53;24.67;;;-0.40;99.90;;;;;;4950259;28;20273;-59
2024/01/19 06:50:22;;;;;;;35.50;22.67;;;-0.40;99.90;;;;;;4949017;28;20191;-62
2024/01/19 06:52:50;;;;;;;30.80;23.47;;;-0.40;99.90;;;;;;4931627;28;20209;-60
2024/01/19 06:55:17;;;;;;;35.00;25.10;;;-0.30;99.90;;;;;;4952634;28;20713;-60
2024/01/19 06:57:44;;;;;;;32.17;23.53;;;-0.30;99.90;;;;;;4952543;28;20294;-60
2024/01/19 07:00:11;;;;;;;37.07;23.97;;;-0.30;99.90;;;;;;4947342;28;20766;-60
2024/01/19 07:02:38;;;;;;;32.43;23.50;;;-0.30;99.90;;;;;;4954767;28;20659;-61
2024/01/19 07:05:06;;;;;;;38.73;23.63;;;-0.20;99.90;;;;;;4931519;29;20214;-59
2024/01/19 07:07:33;;;;;;;32.60;22.23;;;-0.20;99.90;;;;;;4948638;28;20225;-60
2024/01/19 07:10:00;;;;;;;28.00;23.47;;;-0.20;99.90;;;;;;4952150;28;20206;-61
2024/01/19 07:12:27;;;;;;;30.70;22.40;;;-0.20;99.90;;;;;;4918694;29;20262;-62
2024/01/19 07:14:54;;;;;;;31.10;22.20;;;-0.10;99.90;;;;;;4934780;29;20226;-62
2024/01/19 07:17:21;;;;;;;50.87;24.67;;;-0.10;99.90;;;;;;4946998;29;20223;-62
2024/01/19 07:19:48;;;;;;;39.50;24.20;;;-0.20;99.90;;;;;;4944787;29;20202;-59
2024/01/19 07:22:15;;;;;;;43.07;24.00;;;-0.10;99.90;;;;;;4951670;29;20286;-60
2024/01/19 07:24:42;;;;;;;31.37;24.17;;;-0.10;99.90;;;;;;4951245;29;20191;-60
2024/01/19 07:27:09;;;;;;;41.07;24.70;;;-0.20;99.90;;;;;;4952278;29;20246;-61
2024/01/19 07:29:36;;;;;;;38.83;24.97;;;-0.10;99.90;;;;;;4941029;29;20213;-61
2024/01/19 07:32:03;;;;;;;31.93;23.87;;;-0.10;99.90;;;;;;4951139;29;20274;-60
2024/01/19 07:34:30;;;;;;;31.80;22.97;;;-0.10;99.90;;;;;;4951308;29;20194;-60
2024/01/19 07:36:58;;;;;;;35.13;24.43;;;0.00;99.90;;;;;;4950833;29;20601;-59
2024/01/19 07:39:26;;;;;;;45.73;25.97;;;0.00;99.90;;;;;;4934416;29;20599;-60
2024/01/19 07:41:53;;;;;;;41.20;25.20;;;0.00;99.90;;;;;;4947488;29;20191;-60
2024/01/19 07:44:20;;;;;;;37.73;24.10;;;0.10;99.90;;;;;;4949474;29;20195;-60
2024/01/19 07:46:48;;;;;;;36.63;25.77;;;0.10;99.90;;;;;;4948883;29;20230;-59
2024/01/19 07:49:20;;;;;;;42.47;24.63;;;0.10;99.90;;;;;;4940877;29;20214;-60
2024/01/19 07:51:48;;;;;;;39.20;25.90;;;0.10;99.90;;;;;;4951554;29;20202;-60
2024/01/19 07:54:17;;;;;;;39.07;25.30;;;0.20;99.90;;;;;;4934284;29;20198;-60
2024/01/19 07:56:44;;;;;;;43.13;26.07;;;0.20;99.90;;;;;;4945329;29;20213;-60
2024/01/19 07:59:11;;;;;;;43.33;27.73;;;0.20;99.90;;;;;;4935205;28;20508;-61
2024/01/19 08:01:39;;;;;;;43.23;27.47;;;0.20;99.90;;;;;;4958438;28;20235;-61
2024/01/19 08:04:06;;;;;;;50.63;28.30;;;0.30;99.90;;;;;;4933981;29;20206;-60
2024/01/19 08:06:33;;;;;;;45.53;27.57;;;0.30;99.90;;;;;;4956079;28;20277;-60
2024/01/19 08:09:00;;;;;;;42.80;26.83;;;0.30;99.90;;;;;;4950738;29;20583;-60
2024/01/19 08:11:27;;;;;;;41.27;27.73;;;0.30;99.90;;;;;;4945179;29;20227;-61
2024/01/19 08:13:54;;;;;;;42.50;26.53;;;0.30;99.90;;;;;;4950372;28;20384;-60
2024/01/19 08:16:21;;;;;;;42.50;27.23;;;0.30;99.90;;;;;;4950791;29;20196;-61
2024/01/19 08:18:48;;;;;;;44.17;28.00;;;0.40;99.90;;;;;;4950448;29;20211;-60
2024/01/19 08:21:16;;;;;;;50.87;27.80;;;0.40;99.90;;;;;;4942722;29;20285;-60
2024/01/19 08:23:43;;;;;;;43.03;26.80;;;0.30;99.90;;;;;;4951280;29;20199;-61
2024/01/19 08:26:10;;;;;;;33.50;26.23;;;0.40;99.90;;;;;;4959250;28;20234;-60
2024/01/19 08:28:37;;;;;;;39.33;26.90;;;0.40;99.90;;;;;;4927501;29;20755;-60
2024/01/19 08:31:04;;;;;;;43.67;27.17;;;0.50;99.90;;;;;;4940492;29;20636;-60
2024/01/19 08:33:31;;;;;;;40.93;25.77;;;0.50;99.90;;;;;;4951425;29;20191;-60
2024/01/19 08:36:00;;;;;;;35.67;26.13;;;0.60;99.90;;;;;;4950914;29;20198;-60
2024/01/19 08:38:28;;;;;;;48.37;28.93;;;0.60;99.90;;;;;;4950716;28;20199;-60
2024/01/19 08:40:55;;;;;;;35.67;26.47;;;0.50;99.90;;;;;;4944134;29;20198;-61
2024/01/19 08:43:22;;;;;;;42.03;28.77;;;0.60;99.90;;;;;;4950846;29;20205;-60
2024/01/19 08:45:48;;;;;;;46.27;27.87;;;0.60;99.90;;;;;;4950672;29;20258;-60
2024/01/19 08:48:15;;;;;;;39.10;26.10;;;0.60;99.90;;;;;;4951093;29;20242;-60
2024/01/19 08:50:44;;;;;;;37.63;26.30;;;0.80;99.90;;;;;;4950283;29;20358;-61
2024/01/19 08:53:11;;;;;;;45.50;27.90;;;0.90;99.90;;;;;;4916522;29;20213;-60
2024/01/19 08:55:39;;;;;;;45.00;27.97;;;1.00;99.90;;;;;;4949989;29;20199;-61
2024/01/19 08:58:06;;;;;;;40.27;26.10;;;0.90;99.90;;;;;;4940451;29;20210;-60
2024/01/19 09:00:33;;;;;;;45.93;27.13;;;0.70;99.90;;;;;;4932451;29;20270;-60
2024/01/19 09:03:00;;;;;;;53.90;30.50;;;0.70;99.90;;;;;;4949199;29;20199;-60
2024/01/19 09:05:30;;;;;;;39.37;28.17;;;0.80;99.90;;;;;;4948896;29;20199;-60
2024/01/19 09:07:58;;;;;;;43.43;28.47;;;0.90;99.90;;;;;;4950737;28;20215;-61
2024/01/19 09:10:25;;;;;;;37.20;27.07;;;0.80;99.90;;;;;;4933351;29;20703;-60
2024/01/19 09:12:52;;;;;;;45.03;29.70;;;0.90;99.90;;;;;;4950398;29;20195;-60
2024/01/19 09:15:19;;;;;;;43.07;29.70;;;1.00;99.90;;;;;;4949741;28;20210;-61
2024/01/19 09:17:47;;;;;;;39.90;27.13;;;1.10;99.90;;;;;;4949805;29;20310;-61
2024/01/19 09:20:14;;;;;;;41.47;26.07;;;1.00;99.90;;;;;;4933079;29;20655;-61
2024/01/19 09:22:43;;;;;;;47.27;28.70;;;1.00;99.90;;;;;;4932726;29;20269;-61
2024/01/19 09:25:11;;;;;;;47.20;27.80;;;1.00;99.90;;;;;;4949612;29;20195;-60
2024/01/19 09:27:38;;;;;;;45.00;28.13;;;1.00;99.90;;;;;;4949461;29;20665;-60
2024/01/19 09:30:06;;;;;;;32.10;26.07;;;1.50;99.90;;;;;;4932206;29;20875;-61
2024/01/19 09:32:33;;;;;;;38.00;27.77;;;2.10;99.90;;;;;;4947190;29;20206;-63
2024/01/19 09:35:00;;;;;;;41.43;27.10;;;1.90;99.90;;;;;;4950160;29;20247;-60
2024/01/19 09:37:27;;;;;;;34.83;26.60;;;1.80;99.90;;;;;;4942711;29;20609;-60
2024/01/19 09:39:54;;;;;;;37.73;27.93;;;1.80;99.90;;;;;;4949595;29;20583;-61
2024/01/19 09:42:27;;;;;;;39.23;27.93;;;1.80;99.90;;;;;;4949552;29;20364;-61
2024/01/19 09:45:03;;;;;;;37.87;26.47;;;1.70;99.90;;;;;;4950160;29;20206;-61
2024/01/19 09:47:51;;;;;;;34.90;27.37;;;2.00;99.90;;;;;;4948454;28;20261;-61
2024/01/19 09:50:19;;;;;;;37.50;26.43;;;2.10;99.90;;;;;;4932896;29;20544;-60
2024/01/19 09:53:00;;;;;;;30.87;26.70;;;2.30;99.90;;;;;;4956521;28;20758;-61
2024/01/19 09:55:28;;;;;;;40.90;27.83;;;2.20;99.90;;;;;;4938381;29;20195;-60
2024/01/19 09:57:56;;;;;;;38.63;27.07;;;1.90;99.90;;;;;;4949659;29;20685;-60
2024/01/19 10:00:23;;;;;;;34.47;25.37;;;1.90;99.90;;;;;;4931916;29;20816;-60
2024/01/19 10:02:52;;;;;;;35.13;26.37;;;2.40;99.90;;;;;;4949394;29;20521;-61
2024/01/19 10:05:21;;;;;;;33.03;25.97;;;4.70;99.90;;;;;;4949849;29;20265;-60
2024/01/19 10:07:53;;;;;;;34.90;26.53;;;7.30;99.90;;;;;;4944218;28;20203;-60
2024/01/19 10:10:20;;;;;;;26.97;23.47;;;8.60;99.90;;;;;;4949499;28;20717;-61
2024/01/19 10:12:47;;;;;;;33.63;25.57;;;6.60;99.90;;;;;;4949888;29;20233;-61
2024/01/19 10:15:16;;;;;;;28.60;24.73;;;4.70;99.90;;;;;;4949529;28;20243;-61
2024/01/19 10:17:44;;;;;;;30.10;24.63;;;3.90;99.90;;;;;;4932089;29;20234;-60
2024/01/19 10:20:14;;;;;;;28.30;25.30;;;3.40;99.90;;;;;;4949917;29;20632;-61
2024/01/19 10:22:42;;;;;;;31.30;24.93;;;2.90;99.90;;;;;;4950629;29;20195;-61
2024/01/19 10:25:11;;;;;;;33.83;26.37;;;3.00;99.90;;;;;;4951068;29;20202;-61
2024/01/19 10:27:46;;;;;;;33.73;26.03;;;2.80;99.90;;;;;;4954588;28;20192;-61
2024/01/19 10:30:27;;;;;;;28.93;25.90;;;2.50;99.90;;;;;;4953470;29;20206;-61
2024/01/19 10:33:05;;;;;;;29.47;25.60;;;2.60;99.90;;;;;;4954216;29;20194;-61
2024/01/19 10:35:32;;;;;;;34.27;26.73;;;2.60;99.90;;;;;;4946528;29;20557;-61
2024/01/19 10:38:05;;;;;;;31.67;25.27;;;2.30;99.90;;;;;;4936926;29;20644;-61
2024/01/19 10:40:35;;;;;;;38.97;26.07;;;2.20;99.90;;;;;;4953447;29;20195;-60
2024/01/19 10:43:03;;;;;;;31.67;26.30;;;2.00;99.90;;;;;;4952946;29;20607;-61
2024/01/19 10:45:34;;;;;;;31.57;26.07;;;2.20;99.90;;;;;;4953011;29;20711;-61
2024/01/19 10:48:05;;;;;;;32.77;26.00;;;2.40;99.90;;;;;;4950419;28;20321;-61
2024/01/19 10:50:32;;;;;;;29.70;26.33;;;2.20;99.90;;;;;;4953865;29;20214;-62
2024/01/19 10:53:01;;;;;;;34.90;26.83;;;2.00;99.90;;;;;;4953058;29;20519;-61
2024/01/19 10:55:30;;;;;;;36.67;26.03;;;1.90;99.90;;;;;;4952144;28;20244;-61
2024/01/19 10:58:10;;;;;;;37.83;26.77;;;1.90;99.90;;;;;;4952257;28;20734;-62
2024/01/19 11:00:38;;;;;;;33.37;25.13;;;1.90;99.90;;;;;;4952740;29;20257;-61
2024/01/19 11:03:05;;;;;;;37.33;25.10;;;2.00;99.90;;;;;;4953040;29;20234;-67
2024/01/19 11:05:34;;;;;;;35.67;26.20;;;2.40;99.90;;;;;;4952745;29;20195;-66
2024/01/19 11:08:03;;;;;;;32.80;27.00;;;2.60;99.90;;;;;;4953792;28;20233;-67
2024/01/19 11:10:32;;;;;;;40.93;26.03;;;3.10;99.90;;;;;;4953575;29;20210;-67
2024/01/19 11:13:01;;;;;;;37.23;26.17;;;4.30;99.90;;;;;;4951974;29;20254;-67
2024/01/19 11:15:35;;;;;;;32.77;25.57;;;3.60;99.90;;;;;;4954139;28;20229;-67
2024/01/19 11:18:04;;;;;;;30.87;24.80;;;3.30;99.90;;;;;;4953471;29;20233;-67
2024/01/19 11:20:33;;;;;;;29.53;23.80;;;3.50;99.90;;;;;;4952803;29;20242;-67
2024/01/19 11:23:02;;;;;;;30.27;23.90;;;3.20;99.90;;;;;;4939874;29;20230;-67
2024/01/19 11:26:07;;;;;;;34.97;25.23;;;4.80;99.90;;;;;;4936679;29;20195;-67
2024/01/19 11:28:49;;;;;;;31.20;24.43;;;6.50;99.90;;;;;;4934868;29;20711;-68
2024/01/19 11:31:31;;;;;;;26.60;23.90;;;10.20;99.90;;;;;;4952182;29;20274;-67
2024/01/19 11:33:58;;;;;;;26.13;23.27;;;12.40;99.90;;;;;;4943665;29;20738;-68
2024/01/19 11:36:43;;;;;;;27.57;24.57;;;9.50;99.90;;;;;;4952047;28;20611;-67
2024/01/19 11:39:13;;;;;;;31.73;25.40;;;7.20;99.90;;;;;;4948486;28;20255;-66
2024/01/19 11:41:41;;;;;;;27.57;24.57;;;6.70;99.90;;;;;;4953728;29;20195;-67
2024/01/19 11:44:12;;;;;;;26.20;23.43;;;7.80;99.90;;;;;;4957339;28;20836;-67
2024/01/19 11:46:50;;;;;;;27.07;24.37;;;8.50;99.90;;;;;;4953110;29;20730;-66
2024/01/19 11:49:29;;;;;;;27.90;24.43;;;8.60;99.90;;;;;;4963757;28;20387;-65
2024/01/19 11:51:57;;;;;;;28.27;24.50;;;7.00;99.90;;;;;;4935808;29;20182;-66
2024/01/19 11:54:32;;;;;;;26.83;24.03;;;6.70;99.90;;;;;;4920833;29;20289;-67
2024/01/19 11:57:18;;;;;;;27.73;24.50;;;6.30;99.90;;;;;;4957960;28;20908;-66
2024/01/19 11:59:46;;;;;;;28.30;23.93;;;5.50;99.90;;;;;;4951704;28;20304;-65
2024/01/19 12:02:27;;;;;;;27.10;24.23;;;5.80;99.90;;;;;;4951759;29;20246;-66
2024/01/19 12:04:57;;;;;;;31.80;23.57;;;6.10;99.90;;;;;;4952009;28;20221;-67
2024/01/19 12:07:24;;;;;;;29.67;24.00;;;5.60;99.90;;;;;;4955102;28;20631;-66
2024/01/19 12:10:11;;;;;;;26.27;23.50;;;4.60;99.90;;;;;;4951417;29;20207;-66
2024/01/19 12:12:39;;;;;;;27.33;23.53;;;3.90;99.90;;;;;;4941024;29;20587;-60
2024/01/19 12:15:08;;;;;;;26.80;23.90;;;4.60;99.90;;;;;;4952068;28;20258;-60
2024/01/19 12:17:40;;;;;;;25.90;23.20;;;5.40;99.90;;;;;;4951728;29;20191;-70
2024/01/19 12:20:09;;;;;;;27.77;23.30;;;6.40;99.90;;;;;;4950945;29;20644;-64
2024/01/19 12:22:37;;;;;;;27.23;24.40;;;6.30;99.90;;;;;;4933662;29;20195;-60
2024/01/19 12:25:13;;;;;;;26.13;23.23;;;6.80;99.90;;;;;;4951613;29;20202;-71
2024/01/19 12:27:41;;;;;;;27.27;22.67;;;7.60;99.90;;;;;;4949389;29;20234;-69
2024/01/19 12:30:15;;;;;;;25.77;23.13;;;7.40;99.90;;;;;;4950643;29;20222;-61
2024/01/19 12:32:45;;;;;;;28.17;24.67;;;6.00;99.90;;;;;;4921267;29;20556;-60
2024/01/19 12:35:12;;;;;;;28.10;25.13;;;5.50;99.90;;;;;;4950801;28;20730;-61
2024/01/19 12:37:40;;;;;;;28.20;24.17;;;5.70;99.90;;;;;;4947679;28;20269;-60
2024/01/19 12:40:25;;;;;;;28.60;24.07;;;6.00;99.90;;;;;;4943614;28;20461;-61